createdAt,value
2019-02-19T00:00:01.716Z,147.63
2019-02-19T00:02:29.134Z,144.37
2019-02-19T00:04:56.530Z,142.60
2019-02-19T00:07:25.387Z,147.33
2019-02-19T00:09:52.869Z,162.63
2019-02-19T00:12:20.336Z,165.43
2019-02-19T00:14:47.872Z,157.87
2019-02-19T00:17:15.416Z,160.70
2019-02-19T00:19:42.895Z,166.13
2019-02-19T00:22:10.422Z,143.23
2019-02-19T00:24:40.576Z,151.53
2019-02-19T00:27:08.090Z,147.03
2019-02-19T00:29:35.742Z,162.20
2019-02-19T00:32:03.206Z,172.13
2019-02-19T00:34:30.771Z,154.70
2019-02-19T00:36:58.338Z,135.27
2019-02-19T00:39:25.836Z,118.63
2019-02-19T00:41:53.351Z,110.00
2019-02-19T00:44:20.974Z,104.80
2019-02-19T00:46:48.396Z,102.30
2019-02-19T00:49:15.954Z,97.90
2019-02-19T00:51:43.364Z,102.80
2019-02-19T00:54:10.825Z,95.13
2019-02-19T00:56:38.306Z,90.43
2019-02-19T00:59:05.746Z,86.97
2019-02-19T01:01:33.244Z,89.73
2019-02-19T01:04:00.855Z,87.87
2019-02-19T01:06:28.332Z,86.90
2019-02-19T01:08:55.822Z,89.53
2019-02-19T01:11:23.248Z,87.47
2019-02-19T01:13:50.888Z,90.93
2019-02-19T01:16:18.426Z,93.63
2019-02-19T01:18:46.002Z,87.97
2019-02-19T01:21:16.128Z,84.17
2019-02-19T01:23:43.660Z,79.80
2019-02-19T01:26:11.041Z,82.83
2019-02-19T01:28:38.581Z,83.53
2019-02-19T01:31:06.164Z,78.60
2019-02-19T01:33:35.238Z,74.90
2019-02-19T01:36:02.764Z,72.40
2019-02-19T01:38:30.186Z,68.63
2019-02-19T01:40:57.704Z,75.30
2019-02-19T01:43:26.930Z,80.23
2019-02-19T01:45:57.026Z,81.67
2019-02-19T01:48:24.640Z,84.47
2019-02-19T01:50:59.279Z,88.33
2019-02-19T01:53:26.782Z,91.50
2019-02-19T01:55:54.240Z,87.13
2019-02-19T01:58:21.732Z,89.53
2019-02-19T02:00:49.180Z,85.53
2019-02-19T02:03:16.758Z,71.83
2019-02-19T02:05:44.171Z,73.50
2019-02-19T02:08:11.571Z,76.57
2019-02-19T02:10:39.021Z,74.80
2019-02-19T02:13:08.076Z,78.17
2019-02-19T02:15:42.449Z,74.77
2019-02-19T02:18:04.595Z,75.90
2019-02-19T02:20:32.130Z,71.13
2019-02-19T02:22:59.624Z,80.47
2019-02-19T02:25:27.595Z,91.00
2019-02-19T02:27:55.262Z,84.47
2019-02-19T02:30:25.281Z,80.27
2019-02-19T02:32:52.722Z,76.37
2019-02-19T02:35:20.160Z,76.83
2019-02-19T02:37:47.560Z,69.43
2019-02-19T02:40:15.074Z,60.43
2019-02-19T02:42:42.486Z,55.70
2019-02-19T02:45:10.069Z,51.83
2019-02-19T02:47:37.423Z,48.47
2019-02-19T02:50:04.971Z,43.63
2019-02-19T02:52:32.684Z,43.30
2019-02-19T02:55:00.310Z,47.70
2019-02-19T02:57:27.787Z,46.23
2019-02-19T02:59:56.977Z,53.33
2019-02-19T03:02:24.456Z,61.67
2019-02-19T03:04:52.042Z,54.47
2019-02-19T03:07:21.036Z,56.93
2019-02-19T03:09:48.498Z,55.43
2019-02-19T03:12:16.179Z,57.67
2019-02-19T03:14:43.657Z,58.93
2019-02-19T03:17:11.213Z,57.43
2019-02-19T03:19:38.733Z,62.60
2019-02-19T03:22:06.502Z,64.60
2019-02-19T03:24:33.900Z,66.37
2019-02-19T03:27:02.435Z,70.63
2019-02-19T03:29:29.916Z,70.57
2019-02-19T03:31:57.368Z,70.20
2019-02-19T03:34:24.899Z,67.60
2019-02-19T03:36:52.394Z,69.13
2019-02-19T03:39:20.327Z,74.90
2019-02-19T03:41:47.819Z,71.83
2019-02-19T03:44:15.265Z,65.53
2019-02-19T03:46:43.125Z,65.80
2019-02-19T03:49:10.682Z,59.80
2019-02-19T03:51:38.245Z,61.03
2019-02-19T03:54:05.736Z,65.67
2019-02-19T03:56:33.275Z,71.07
2019-02-19T03:59:00.781Z,75.43
2019-02-19T04:01:28.166Z,74.77
2019-02-19T04:03:55.651Z,76.60
2019-02-19T04:06:23.161Z,72.17
2019-02-19T04:08:50.611Z,73.77
2019-02-19T04:11:18.096Z,73.57
2019-02-19T04:13:45.541Z,71.17
2019-02-19T04:16:20.991Z,74.07
2019-02-19T04:18:42.765Z,61.13
2019-02-19T04:21:10.284Z,59.07
2019-02-19T04:23:38.257Z,58.83
2019-02-19T04:26:05.707Z,52.63
2019-02-19T04:28:33.270Z,55.67
2019-02-19T04:31:00.836Z,58.10
2019-02-19T04:33:28.378Z,56.07
2019-02-19T04:35:55.780Z,66.67
2019-02-19T04:38:23.181Z,63.50
2019-02-19T04:40:50.725Z,62.57
2019-02-19T04:43:18.218Z,63.07
2019-02-19T04:45:45.783Z,62.33
2019-02-19T04:48:13.428Z,63.87
2019-02-19T04:50:40.964Z,58.67
2019-02-19T04:53:08.345Z,60.47
2019-02-19T04:55:35.909Z,62.23
2019-02-19T04:58:03.496Z,58.93
2019-02-19T05:00:31.010Z,57.13
2019-02-19T05:02:58.467Z,58.77
2019-02-19T05:05:26.389Z,57.93
2019-02-19T05:07:53.850Z,58.13
2019-02-19T05:10:21.267Z,56.07
2019-02-19T05:12:48.703Z,64.93
2019-02-19T05:15:16.270Z,65.00
2019-02-19T05:17:43.784Z,66.60
2019-02-19T05:20:11.301Z,58.80
2019-02-19T05:22:38.669Z,62.67
2019-02-19T05:25:07.138Z,74.20
2019-02-19T05:27:34.830Z,84.07
2019-02-19T05:30:02.967Z,73.50
2019-02-19T05:32:30.361Z,70.57
2019-02-19T05:34:57.860Z,62.83
2019-02-19T05:37:25.360Z,67.50
2019-02-19T05:39:53.230Z,65.23
2019-02-19T05:42:20.820Z,62.27
2019-02-19T05:44:48.450Z,66.83
2019-02-19T05:47:15.980Z,77.20
2019-02-19T05:49:43.501Z,80.57
2019-02-19T05:52:12.383Z,80.93
2019-02-19T05:54:39.835Z,84.37
2019-02-19T05:57:07.329Z,86.10
2019-02-19T05:59:34.780Z,86.63
2019-02-19T06:02:02.254Z,87.73
2019-02-19T06:04:31.442Z,83.73
2019-02-19T06:06:58.904Z,85.73
2019-02-19T06:09:32.456Z,89.67
2019-02-19T06:11:59.890Z,87.27
2019-02-19T06:14:29.078Z,80.33
2019-02-19T06:16:58.480Z,77.40
2019-02-19T06:19:28.592Z,73.03
2019-02-19T06:21:56.180Z,70.37
2019-02-19T06:24:23.830Z,66.33
2019-02-19T06:26:52.735Z,58.13
2019-02-19T06:29:22.025Z,51.70
2019-02-19T06:31:52.634Z,43.43
2019-02-19T06:37:29.652Z,42.37
2019-02-19T06:43:19.042Z,43.23
2019-02-19T07:56:32.682Z,26.77
2019-02-19T07:59:20.559Z,26.47
2019-02-19T08:01:48.351Z,25.40
2019-02-19T08:04:15.920Z,25.17
2019-02-19T08:06:43.339Z,24.10
2019-02-19T08:09:12.414Z,24.20
2019-02-19T08:11:40.605Z,24.23
2019-02-19T08:14:08.179Z,25.20
2019-02-19T08:16:36.154Z,23.67
2019-02-19T08:19:03.687Z,24.57
2019-02-19T08:21:31.217Z,23.73
2019-02-19T08:23:59.725Z,26.17
2019-02-19T08:26:27.293Z,24.40
2019-02-19T08:29:04.027Z,26.37
2019-02-19T08:31:24.121Z,24.50
2019-02-19T08:33:51.581Z,23.67
2019-02-19T08:36:19.071Z,24.20
2019-02-19T08:38:47.117Z,24.70
2019-02-19T08:41:14.706Z,24.57
2019-02-19T08:44:25.050Z,23.93
2019-02-19T08:46:52.549Z,22.57
2019-02-19T08:49:19.987Z,21.70
2019-02-19T08:51:55.744Z,22.50
2019-02-19T08:54:16.809Z,23.43
2019-02-19T08:56:44.508Z,22.93
2019-02-19T08:59:12.348Z,22.03
2019-02-19T09:01:39.915Z,22.63
2019-02-19T09:06:58.025Z,22.30
2019-02-19T09:09:25.737Z,22.93
2019-02-19T09:15:05.422Z,21.10
2019-02-19T09:17:32.949Z,22.37
2019-02-19T09:20:00.487Z,23.00
2019-02-19T09:22:28.561Z,21.87
2019-02-19T09:24:56.113Z,21.97
2019-02-19T09:27:23.593Z,22.43
2019-02-19T09:29:51.153Z,22.07
2019-02-19T09:32:20.221Z,22.00
2019-02-19T09:34:47.873Z,23.57
2019-02-19T09:37:15.444Z,21.17
2019-02-19T09:39:42.926Z,23.37
2019-02-19T09:42:10.567Z,22.07
2019-02-19T09:44:39.163Z,22.10
2019-02-19T09:47:08.266Z,24.60
2019-02-19T09:49:35.829Z,24.77
2019-02-19T09:52:03.433Z,25.10
2019-02-19T09:54:31.274Z,26.67
2019-02-19T09:56:59.857Z,25.33
2019-02-19T09:59:27.298Z,26.33
2019-02-19T10:01:56.398Z,25.43
2019-02-19T10:04:23.912Z,24.50
2019-02-19T10:06:51.322Z,26.07
2019-02-19T10:09:18.822Z,27.77
2019-02-19T10:11:47.494Z,25.57
2019-02-19T10:14:15.114Z,27.80
2019-02-19T10:16:42.632Z,25.83
2019-02-19T10:19:10.118Z,25.77
2019-02-19T10:21:38.187Z,25.13
2019-02-19T10:24:05.701Z,25.73
2019-02-19T10:26:33.203Z,25.93
2019-02-19T10:29:00.932Z,25.30
2019-02-19T10:31:28.415Z,24.33
2019-02-19T10:33:55.946Z,25.13
2019-02-19T10:36:23.558Z,25.93
2019-02-19T10:38:51.055Z,26.07
2019-02-19T10:41:18.623Z,22.67
2019-02-19T10:44:02.800Z,24.00
2019-02-19T10:46:30.371Z,22.97
2019-02-19T10:48:57.904Z,21.73
2019-02-19T10:51:30.110Z,22.50
2019-02-19T10:54:20.968Z,24.40
2019-02-19T10:56:48.642Z,23.93
2019-02-19T10:59:16.803Z,21.97
2019-02-19T11:01:44.308Z,20.90
2019-02-19T11:04:11.832Z,21.50
2019-02-19T11:06:39.724Z,21.13
2019-02-19T11:09:07.221Z,20.77
2019-02-19T11:11:34.848Z,20.93
2019-02-19T11:14:02.335Z,22.27
2019-02-19T11:16:29.825Z,22.37
2019-02-19T11:18:57.323Z,21.80
2019-02-19T11:21:27.714Z,21.07
2019-02-19T11:23:58.450Z,22.13
2019-02-19T11:26:27.574Z,22.23
2019-02-19T11:28:55.282Z,21.13
2019-02-19T11:31:22.710Z,21.73
2019-02-19T11:33:51.386Z,21.30
2019-02-19T11:36:18.901Z,21.63
2019-02-19T11:38:46.471Z,24.00
2019-02-19T11:41:15.885Z,24.40
2019-02-19T11:43:43.319Z,23.40
2019-02-19T11:46:11.045Z,24.03
2019-02-19T11:48:38.505Z,23.97
2019-02-19T11:51:05.976Z,23.30
2019-02-19T11:53:33.485Z,23.87
2019-02-19T11:56:01.001Z,23.20
2019-02-19T11:58:28.558Z,22.90
2019-02-19T12:00:56.072Z,21.80
2019-02-19T12:03:23.560Z,22.97
2019-02-19T12:05:51.046Z,24.37
2019-02-19T12:08:18.528Z,25.67
2019-02-19T12:10:45.988Z,26.27
2019-02-19T12:13:13.452Z,25.47
2019-02-19T12:15:42.108Z,27.03
2019-02-19T12:18:09.640Z,25.27
2019-02-19T12:20:37.160Z,25.03
2019-02-19T12:23:04.592Z,26.30
2019-02-19T12:25:32.102Z,27.93
2019-02-19T12:28:00.962Z,28.67
2019-02-19T12:31:03.426Z,29.40
2019-02-19T12:34:07.504Z,27.17
2019-02-19T12:36:35.029Z,29.93
2019-02-19T12:39:02.625Z,27.87
2019-02-19T12:47:44.958Z,29.13
2019-02-19T12:50:26.158Z,28.70
2019-02-19T12:52:53.658Z,28.67
2019-02-19T12:55:22.252Z,29.03
2019-02-19T12:57:51.047Z,30.17
2019-02-19T13:00:19.000Z,28.93
2019-02-19T13:02:46.492Z,29.60
2019-02-19T13:05:14.889Z,26.30
2019-02-19T13:07:44.084Z,29.70
2019-02-19T13:10:14.207Z,28.80
2019-02-19T13:12:42.564Z,28.53
2019-02-19T13:15:11.424Z,29.33
2019-02-19T13:17:39.121Z,32.47
2019-02-19T13:20:08.286Z,31.23
2019-02-19T13:22:35.942Z,31.03
2019-02-19T13:25:03.639Z,30.17
2019-02-19T13:27:31.173Z,30.93
2019-02-19T13:29:58.887Z,32.40
2019-02-19T13:32:26.417Z,31.43
2019-02-19T13:34:54.051Z,32.73
2019-02-19T13:37:22.911Z,30.37
2019-02-19T13:39:50.467Z,30.57
2019-02-19T13:42:18.206Z,32.77
2019-02-19T13:44:45.738Z,32.37
2019-02-19T13:47:14.617Z,30.77
2019-02-19T13:49:42.326Z,29.67
2019-02-19T13:52:11.996Z,30.60
2019-02-19T13:54:40.814Z,28.03
2019-02-19T13:57:08.479Z,28.47
2019-02-19T13:59:35.998Z,30.67
2019-02-19T14:02:04.603Z,29.17
2019-02-19T14:04:32.561Z,28.73
2019-02-19T14:07:01.678Z,28.27
2019-02-19T14:09:31.775Z,29.57
2019-02-19T14:11:59.458Z,28.70
2019-02-19T14:14:28.499Z,27.77
2019-02-19T14:16:57.854Z,28.30
2019-02-19T14:19:27.472Z,28.27
2019-02-19T14:22:08.661Z,25.87
2019-02-19T14:24:50.928Z,28.13
2019-02-19T14:27:22.016Z,29.27
2019-02-19T14:29:56.664Z,28.37
2019-02-19T14:32:32.011Z,28.47
2019-02-19T14:35:31.257Z,30.03
2019-02-19T14:37:56.651Z,27.13
2019-02-19T14:40:32.811Z,28.33
2019-02-19T14:43:04.826Z,29.83
2019-02-19T14:48:36.237Z,28.87
2019-02-19T14:51:06.799Z,29.80
2019-02-19T14:53:38.394Z,31.03
2019-02-19T14:56:11.495Z,29.83
2019-02-19T14:58:40.700Z,30.30
2019-02-19T15:01:12.360Z,31.50
2019-02-19T15:03:59.770Z,30.93
2019-02-19T15:06:45.831Z,33.17
2019-02-19T15:09:32.897Z,31.10
2019-02-19T15:12:13.841Z,33.10
2019-02-19T15:14:45.691Z,34.00
2019-02-19T15:17:22.875Z,36.00
2019-02-19T15:20:04.049Z,35.27
2019-02-19T15:22:39.073Z,35.43
2019-02-19T15:25:09.471Z,35.37
2019-02-19T15:27:38.613Z,34.90
2019-02-19T15:30:08.796Z,36.53
2019-02-19T15:32:40.896Z,37.33
2019-02-19T15:35:26.988Z,36.13
2019-02-19T15:38:04.937Z,33.93
2019-02-19T15:40:39.137Z,35.90
2019-02-19T15:43:10.203Z,35.93
2019-02-19T15:45:56.290Z,36.10
2019-02-19T15:48:41.938Z,36.77
2019-02-19T15:51:27.741Z,38.60
2019-02-19T15:53:59.615Z,37.47
2019-02-19T15:56:45.353Z,39.13
2019-02-19T15:59:26.467Z,38.90
2019-02-19T16:01:55.631Z,39.50
2019-02-19T16:04:36.981Z,44.20
2019-02-19T16:07:09.183Z,45.40
2019-02-19T16:09:54.057Z,46.60
2019-02-19T16:12:24.006Z,42.03
2019-02-19T16:15:01.833Z,43.50
2019-02-19T16:17:31.034Z,41.47
2019-02-19T16:20:00.311Z,44.07
2019-02-19T16:22:30.215Z,46.77
2019-02-19T16:25:15.565Z,44.50
2019-02-19T16:28:01.500Z,45.80
2019-02-19T16:30:47.116Z,45.63
2019-02-19T16:33:32.983Z,46.97
2019-02-19T16:36:12.488Z,48.93
2019-02-19T16:39:20.059Z,49.00
2019-02-19T16:41:58.275Z,47.77
2019-02-19T16:44:28.494Z,50.97
2019-02-19T16:47:08.045Z,49.47
2019-02-19T16:49:42.980Z,51.70
2019-02-19T16:52:12.276Z,52.80
2019-02-19T16:54:41.590Z,54.53
2019-02-19T16:57:10.744Z,57.67
2019-02-19T16:59:54.836Z,59.23
2019-02-19T17:02:32.884Z,65.27
2019-02-19T17:05:02.346Z,64.57
2019-02-19T17:07:35.588Z,69.23
2019-02-19T17:10:07.095Z,75.57
2019-02-19T17:12:47.996Z,77.13
2019-02-19T17:15:16.958Z,69.03
2019-02-19T17:17:58.412Z,66.23
2019-02-19T17:20:29.529Z,70.67
2019-02-19T17:23:01.653Z,66.47
2019-02-19T17:25:33.263Z,63.87
2019-02-19T17:28:19.045Z,64.43
2019-02-19T17:31:04.593Z,57.40
2019-02-19T17:33:39.354Z,57.83
2019-02-19T17:36:08.479Z,55.33
2019-02-19T17:38:46.503Z,56.73
2019-02-19T17:41:24.667Z,54.83
2019-02-19T17:44:12.044Z,58.70
2019-02-19T17:46:47.124Z,58.50
2019-02-19T17:49:32.896Z,59.23
2019-02-19T17:52:07.502Z,60.57
2019-02-19T17:54:39.919Z,59.87
2019-02-19T17:57:18.001Z,59.47
2019-02-19T17:59:49.767Z,61.80
2019-02-19T18:02:19.383Z,58.87
2019-02-19T18:04:48.407Z,62.17
2019-02-19T18:07:17.598Z,64.07
2019-02-19T18:10:01.890Z,62.47
2019-02-19T18:12:31.088Z,61.83
2019-02-19T18:15:16.356Z,62.63
2019-02-19T18:17:45.495Z,61.40
2019-02-19T18:20:13.091Z,62.00
2019-02-19T18:22:40.612Z,60.17
2019-02-19T18:25:08.106Z,58.97
2019-02-19T18:27:36.919Z,56.20
2019-02-19T18:30:05.610Z,53.80
2019-02-19T18:32:33.282Z,55.23
2019-02-19T18:35:00.761Z,56.33
2019-02-19T18:37:28.237Z,57.63
2019-02-19T18:39:55.674Z,58.80
2019-02-19T18:42:23.031Z,59.07
2019-02-19T18:44:50.552Z,62.77
2019-02-19T18:47:18.022Z,59.73
2019-02-19T18:49:45.464Z,63.90
2019-02-19T18:52:12.858Z,64.77
2019-02-19T18:54:40.241Z,63.93
2019-02-19T18:57:07.800Z,64.20
2019-02-19T18:59:35.303Z,66.50
2019-02-19T19:02:02.824Z,70.20
2019-02-19T19:04:30.199Z,70.70
2019-02-19T19:06:57.533Z,68.90
2019-02-19T19:09:25.150Z,68.47
2019-02-19T19:11:52.631Z,69.80
2019-02-19T19:14:20.128Z,71.87
2019-02-19T19:16:48.098Z,73.20
2019-02-19T19:19:15.511Z,72.43
2019-02-19T19:21:42.940Z,73.50
2019-02-19T19:24:10.319Z,71.23
2019-02-19T19:26:37.758Z,66.90
2019-02-19T19:29:05.246Z,63.07
2019-02-19T19:31:33.918Z,63.53
2019-02-19T19:34:01.557Z,64.07
2019-02-19T19:36:28.994Z,62.50
2019-02-19T19:38:56.470Z,60.67
2019-02-19T19:41:24.029Z,59.13
2019-02-19T19:43:51.370Z,62.53
2019-02-19T19:46:18.848Z,61.63
2019-02-19T19:48:46.275Z,60.23
2019-02-19T19:51:17.442Z,54.10
2019-02-19T19:53:45.130Z,58.27
2019-02-19T19:56:12.536Z,61.23
2019-02-19T19:58:39.984Z,61.47
2019-02-19T20:01:07.365Z,65.03
2019-02-19T20:03:34.775Z,64.30
2019-02-19T20:06:02.244Z,65.70
2019-02-19T20:08:29.727Z,69.23
2019-02-19T20:10:57.143Z,70.37
2019-02-19T20:13:24.591Z,75.73
2019-02-19T20:15:52.151Z,72.60
2019-02-19T20:18:19.564Z,71.87
2019-02-19T20:20:46.909Z,69.07
2019-02-19T20:23:14.384Z,69.97
2019-02-19T20:25:41.896Z,72.23
2019-02-19T20:28:09.334Z,77.53
2019-02-19T20:30:36.775Z,77.27
2019-02-19T20:33:04.338Z,84.53
2019-02-19T20:35:31.918Z,83.63
2019-02-19T20:37:59.322Z,82.57
2019-02-19T20:40:26.768Z,79.97
2019-02-19T20:42:55.189Z,82.30
2019-02-19T20:45:22.689Z,79.93
2019-02-19T20:47:50.142Z,81.30
2019-02-19T20:50:17.504Z,77.90
2019-02-19T20:52:44.984Z,75.40
2019-02-19T20:55:12.547Z,75.87
2019-02-19T20:57:40.039Z,73.33
2019-02-19T21:00:12.518Z,72.80
2019-02-19T21:02:40.094Z,70.73
2019-02-19T21:05:08.809Z,66.67
2019-02-19T21:07:37.291Z,64.13
2019-02-19T21:10:06.406Z,61.03
2019-02-19T21:12:33.801Z,59.37
2019-02-19T21:15:01.267Z,59.80
2019-02-19T21:17:28.785Z,56.60
2019-02-19T21:19:56.163Z,60.13
2019-02-19T21:22:23.560Z,61.73
2019-02-19T21:24:50.973Z,65.43
2019-02-19T21:27:18.481Z,68.60
2019-02-19T21:29:46.510Z,61.50
2019-02-19T21:32:15.898Z,58.90
2019-02-19T21:34:43.335Z,56.07
2019-02-19T21:37:10.871Z,47.80
2019-02-19T21:39:38.385Z,50.17
2019-02-19T21:42:05.830Z,47.43
2019-02-19T21:44:33.226Z,44.90
2019-02-19T21:47:00.616Z,51.37
2019-02-19T21:49:28.073Z,43.87
2019-02-19T21:51:55.680Z,43.63
2019-02-19T21:54:23.133Z,43.87
2019-02-19T21:56:50.608Z,45.77
2019-02-19T21:59:17.948Z,47.27
2019-02-19T22:01:45.443Z,46.60
2019-02-19T22:04:12.937Z,44.83
2019-02-19T22:06:42.139Z,44.57
2019-02-19T22:09:09.623Z,44.10
2019-02-19T22:11:37.198Z,46.90
2019-02-19T22:14:04.814Z,54.07
2019-02-19T22:16:32.350Z,55.63
2019-02-19T22:18:59.789Z,57.73
2019-02-19T22:21:31.363Z,62.60
2019-02-19T22:23:58.825Z,63.47
2019-02-19T22:26:26.161Z,63.60
2019-02-19T22:28:53.684Z,60.67
2019-02-19T22:31:21.063Z,57.03
2019-02-19T22:33:48.532Z,55.90
2019-02-19T22:36:16.023Z,52.73
2019-02-19T22:38:43.414Z,50.40
2019-02-19T22:41:11.113Z,49.60
2019-02-19T22:43:38.527Z,50.50
2019-02-19T22:46:06.015Z,45.97
2019-02-19T22:48:33.476Z,47.30
2019-02-19T22:51:00.950Z,45.97
2019-02-19T22:53:41.635Z,46.27
2019-02-19T22:56:13.659Z,41.77
2019-02-19T22:58:43.049Z,40.23
2019-02-19T23:01:12.360Z,40.73
2019-02-19T23:03:41.320Z,39.00
2019-02-19T23:06:08.851Z,39.33
2019-02-19T23:08:36.282Z,37.27
2019-02-19T23:11:03.756Z,35.47
2019-02-19T23:13:31.260Z,33.80
2019-02-19T23:15:58.717Z,37.40
2019-02-19T23:18:26.218Z,33.40
2019-02-19T23:20:53.558Z,37.53
2019-02-19T23:23:21.013Z,36.93
2019-02-19T23:25:48.374Z,36.10
2019-02-19T23:28:15.729Z,36.70
2019-02-19T23:30:43.862Z,33.90
2019-02-19T23:33:11.239Z,37.07
2019-02-19T23:35:40.288Z,40.43
2019-02-19T23:38:07.711Z,37.47
2019-02-19T23:40:35.198Z,38.30
2019-02-19T23:43:02.637Z,35.43
2019-02-19T23:45:30.074Z,35.50
2019-02-19T23:47:57.518Z,31.37
2019-02-19T23:50:25.082Z,28.93
2019-02-19T23:52:52.661Z,29.93
2019-02-19T23:55:20.103Z,30.83
2019-02-19T23:57:47.618Z,33.87
